Time;durP1;ratioP1;P1;durP2;ratioP2;P2;SDS_P1;SDS_P2;PMS_P1;PMS_P2;Temp;Humidity;BMP_temperature;BMP_pressure;BME280_temperature;BME280_humidity;BME280_pressure;Samples;Min_cycle;Max_cycle;Signal;HPM_P1;HPM_P2
2023/05/07 00:00:22;;;;;;;0.40;0.40;;;;;;;13.77;73.53;96768.41;29394;255;64013;-57
2023/05/07 00:00:54;;;;;;;0.40;0.40;;;;;;;13.74;73.20;96769.03;29395;205;63005;-55
2023/05/07 00:01:26;;;;;;;0.40;0.40;;;;;;;13.73;72.89;96764.72;29395;244;63009;-58
2023/05/07 00:01:57;;;;;;;0.40;0.40;;;;;;;13.72;73.02;96780.25;29395;205;63005;-55
2023/05/07 00:02:29;;;;;;;0.40;0.40;;;;;;;13.70;73.37;96778.97;29395;205;63009;-57
2023/05/07 00:03:01;;;;;;;0.40;0.40;;;;;;;13.69;72.88;96788.25;29395;242;63004;-58
2023/05/07 00:03:33;;;;;;;0.40;0.40;;;;;;;13.68;73.24;96778.47;29395;219;63009;-59
2023/05/07 00:04:07;;;;;;;0.40;0.40;;;;;;;13.68;73.49;96789.38;29395;335;63004;-58
2023/05/07 00:04:38;;;;;;;0.40;0.40;;;;;;;13.66;73.19;96784.25;29395;214;63009;-58
2023/05/07 00:05:10;;;;;;;0.40;0.40;;;;;;;13.66;73.58;96778.00;29395;230;63004;-58
2023/05/07 00:05:41;;;;;;;0.40;0.40;;;;;;;13.65;73.39;96781.84;29394;204;64013;-58
2023/05/07 00:06:12;;;;;;;0.30;0.30;;;;;;;13.64;73.46;96780.22;29395;311;63005;-59
2023/05/07 00:06:43;;;;;;;0.40;0.40;;;;;;;13.64;73.36;96780.22;29395;198;63009;-57
2023/05/07 00:07:16;;;;;;;0.40;0.40;;;;;;;13.63;73.39;96781.34;29395;222;63005;-58
2023/05/07 00:07:48;;;;;;;0.40;0.40;;;;;;;13.62;73.81;96777.81;29395;327;63009;-58
2023/05/07 00:08:20;;;;;;;0.40;0.40;;;;;;;13.59;76.16;96777.63;29394;236;64005;-55
2023/05/07 00:08:51;;;;;;;0.40;0.40;;;;;;;13.55;76.37;96776.66;29394;254;64009;-58
2023/05/07 00:09:22;;;;;;;0.40;0.40;;;;;;;13.52;76.27;96782.72;29395;211;63005;-58
2023/05/07 00:09:54;;;;;;;0.40;0.40;;;;;;;13.50;76.45;96779.53;29395;203;63009;-58
2023/05/07 00:10:26;;;;;;;0.40;0.40;;;;;;;13.47;76.43;96775.53;29395;203;63006;-57
2023/05/07 00:10:57;;;;;;;0.40;0.40;;;;;;;13.46;76.43;96776.63;29394;238;64013;-57
2023/05/07 00:11:28;;;;;;;0.40;0.40;;;;;;;13.44;75.95;96776.16;29395;307;63004;-59
2023/05/07 00:12:00;;;;;;;0.40;0.40;;;;;;;13.44;75.36;96778.06;29395;224;63018;-57
2023/05/07 00:12:33;;;;;;;0.40;0.40;;;;;;;13.43;75.32;96777.25;29395;241;63004;-57
2023/05/07 00:13:04;;;;;;;0.40;0.40;;;;;;;13.44;75.00;96778.06;29395;289;63008;-59
2023/05/07 00:13:36;;;;;;;0.30;0.30;;;;;;;13.44;74.75;96781.59;29395;334;63004;-59
2023/05/07 00:14:07;;;;;;;0.40;0.40;;;;;;;13.44;75.03;96778.88;29395;215;63009;-58
2023/05/07 00:14:38;;;;;;;0.40;0.40;;;;;;;13.44;74.81;96775.34;29395;247;63005;-57
2023/05/07 00:15:10;;;;;;;0.40;0.40;;;;;;;13.44;74.94;96778.06;29395;212;63009;-58
2023/05/07 00:15:41;;;;;;;0.40;0.40;;;;;;;13.45;74.48;96776.94;29395;199;63005;-59
2023/05/07 00:16:13;;;;;;;0.40;0.40;;;;;;;13.44;74.54;96778.06;29394;238;64013;-58
2023/05/07 00:16:44;;;;;;;0.40;0.40;;;;;;;13.44;74.23;96775.34;29395;322;63005;-58
2023/05/07 00:17:15;;;;;;;0.40;0.40;;;;;;;13.43;74.28;96780.00;29395;222;63019;-58
2023/05/07 00:17:46;;;;;;;0.40;0.40;;;;;;;13.44;74.32;96778.88;29395;260;63005;-58
2023/05/07 00:18:20;;;;;;;0.40;0.40;;;;;;;13.43;74.19;96785.44;29395;198;63009;-59
2023/05/07 00:18:53;;;;;;;0.40;0.40;;;;;;;13.44;74.22;96780.78;29395;268;63013;-58
2023/05/07 00:19:24;;;;;;;0.40;0.40;;;;;;;13.44;74.35;96780.78;29395;231;63017;-57
2023/05/07 00:19:57;;;;;;;0.40;0.40;;;;;;;13.43;74.18;96776.47;29395;216;63004;-59
2023/05/07 00:20:29;;;;;;;0.40;0.40;;;;;;;13.44;74.43;96780.78;29395;213;63008;-59
2023/05/07 00:21:00;;;;;;;0.40;0.40;;;;;;;13.44;73.94;96778.06;29394;221;64008;-58
2023/05/07 00:21:31;;;;;;;0.40;0.40;;;;;;;13.43;74.25;96780.00;29395;227;63020;-58
2023/05/07 00:23:09;;;;;;;0.40;0.40;;;;;;;13.43;74.15;96777.25;88178;221;64005;-57
2023/05/07 00:23:40;;;;;;;0.40;0.40;;;;;;;13.41;74.05;96772.13;29394;250;64009;-59
2023/05/07 00:24:11;;;;;;;0.40;0.40;;;;;;;13.40;74.73;96775.97;29395;249;63004;-57
2023/05/07 00:24:43;;;;;;;0.35;0.35;;;;;;;13.40;75.19;96773.25;29395;257;63008;-60
2023/05/07 00:25:15;;;;;;;0.40;0.40;;;;;;;13.37;75.78;96771.13;29394;204;64009;-59
2023/05/07 00:25:46;;;;;;;0.40;0.40;;;;;;;13.36;75.50;96780.44;29395;206;63009;-59
2023/05/07 00:26:18;;;;;;;0.40;0.40;;;;;;;13.35;75.49;96776.09;29395;297;63005;-60
2023/05/07 00:26:50;;;;;;;0.40;0.40;;;;;;;13.34;75.30;96777.22;29395;241;63009;-59
2023/05/07 00:27:21;;;;;;;0.40;0.40;;;;;;;13.34;75.30;96771.75;29395;221;63005;-59
2023/05/07 00:27:53;;;;;;;0.40;0.40;;;;;;;13.32;75.85;96774.00;29394;214;64009;-57
2023/05/07 00:28:25;;;;;;;0.40;0.40;;;;;;;13.30;75.61;96770.78;29395;211;63004;-55
2023/05/07 00:28:56;;;;;;;0.40;0.40;;;;;;;13.30;75.31;96770.78;29395;226;63009;-59
2023/05/07 00:29:27;;;;;;;0.40;0.40;;;;;;;13.30;75.39;96773.50;29395;221;63004;-58
2023/05/07 00:29:58;;;;;;;0.40;0.40;;;;;;;13.29;75.37;96774.63;29395;221;63009;-58
2023/05/07 00:30:29;;;;;;;0.40;0.40;;;;;;;13.29;75.30;96766.44;29394;219;64009;-58
2023/05/07 00:31:01;;;;;;;0.32;0.32;;;;;;;13.29;75.21;96766.44;29395;235;63008;-58
2023/05/07 00:31:33;;;;;;;0.40;0.40;;;;;;;13.29;75.38;96774.63;29394;214;64008;-55
2023/05/07 00:32:05;;;;;;;0.40;0.40;;;;;;;13.28;75.48;96769.47;29395;246;63009;-58
2023/05/07 00:32:36;;;;;;;0.40;0.40;;;;;;;13.27;75.40;96771.41;29395;207;63005;-56
2023/05/07 00:33:07;;;;;;;0.40;0.40;;;;;;;13.25;75.58;96760.00;29395;245;63009;-58
2023/05/07 00:33:39;;;;;;;0.40;0.40;;;;;;;13.25;75.54;96770.91;29395;202;63005;-58
2023/05/07 00:34:10;;;;;;;0.37;0.37;;;;;;;13.24;75.13;96772.03;29395;268;63009;-58
2023/05/07 00:34:41;;;;;;;0.40;0.40;;;;;;;13.23;75.45;96767.69;29395;237;63005;-58
2023/05/07 00:35:12;;;;;;;0.40;0.40;;;;;;;13.22;75.83;96768.81;29395;209;63005;-58
2023/05/07 00:35:47;;;;;;;0.40;0.40;;;;;;;13.22;76.02;96768.00;29395;202;63005;-58
2023/05/07 00:36:18;;;;;;;0.40;0.40;;;;;;;13.19;76.43;96769.44;29395;212;63009;-58
2023/05/07 00:36:49;;;;;;;0.50;0.50;;;;;;;13.18;76.00;96767.81;29394;231;64009;-59
2023/05/07 00:37:21;;;;;;;0.40;0.40;;;;;;;13.16;76.14;96764.63;29395;197;63009;-59
2023/05/07 00:37:52;;;;;;;0.40;0.40;;;;;;;13.17;75.91;96768.94;29395;203;63004;-59
2023/05/07 00:38:27;;;;;;;0.50;0.50;;;;;;;13.17;76.24;96770.88;29395;241;63009;-58
2023/05/07 00:39:01;;;;;;;0.40;0.40;;;;;;;13.15;76.90;96771.16;29395;249;63004;-58
2023/05/07 00:39:33;;;;;;;0.40;0.40;;;;;;;13.13;77.87;96764.41;29395;216;63009;-58
2023/05/07 00:40:07;;;;;;;0.40;0.40;;;;;;;13.09;77.55;96775.13;29395;272;63005;-56
2023/05/07 00:40:38;;;;;;;0.40;0.40;;;;;;;13.07;77.08;96767.28;29395;209;63009;-58
2023/05/07 00:41:09;;;;;;;0.40;0.40;;;;;;;13.07;76.87;96770.00;29395;208;63005;-58
2023/05/07 00:41:41;;;;;;;0.40;0.40;;;;;;;13.07;76.86;96766.47;29395;264;63009;-58
2023/05/07 00:42:12;;;;;;;0.40;0.40;;;;;;;13.07;76.95;96766.47;29394;221;64009;-58
2023/05/07 00:42:46;;;;;;;0.35;0.35;;;;;;;13.07;76.51;96761.00;29395;197;63009;-58
2023/05/07 00:43:18;;;;;;;0.40;0.40;;;;;;;13.06;76.75;96765.66;29394;239;64009;-57
2023/05/07 00:43:51;;;;;;;0.40;0.40;;;;;;;13.07;76.96;96763.75;29395;212;63009;-59
2023/05/07 00:44:23;;;;;;;0.40;0.40;;;;;;;13.07;76.67;96769.19;29395;205;63004;-57
2023/05/07 00:44:55;;;;;;;0.40;0.40;;;;;;;13.06;77.03;96760.22;29395;226;63009;-58
2023/05/07 00:45:29;;;;;;;0.40;0.40;;;;;;;13.07;77.04;96763.75;29395;289;63004;-58
2023/05/07 00:46:01;;;;;;;0.40;0.40;;;;;;;13.07;76.92;96761.00;29395;272;63008;-58
2023/05/07 00:46:33;;;;;;;0.40;0.40;;;;;;;13.05;76.77;96768.69;29395;236;63004;-58
2023/05/07 00:47:06;;;;;;;0.40;0.40;;;;;;;13.05;76.47;96757.81;29395;252;63009;-58
2023/05/07 00:47:37;;;;;;;0.40;0.40;;;;;;;13.04;76.82;96757.00;29395;219;63005;-57
2023/05/07 00:48:08;;;;;;;0.40;0.40;;;;;;;13.05;76.57;96757.81;29394;242;64009;-58
2023/05/07 00:48:40;;;;;;;0.40;0.40;;;;;;;13.05;76.44;96752.34;29394;227;64009;-58
2023/05/07 00:49:12;;;;;;;0.40;0.40;;;;;;;13.06;76.48;96759.41;29395;207;63009;-58
2023/05/07 00:49:45;;;;;;;0.40;0.40;;;;;;;13.05;76.61;96746.91;29395;264;63005;-59
2023/05/07 00:50:16;;;;;;;0.40;0.40;;;;;;;13.05;76.23;96746.91;29395;244;63009;-58
2023/05/07 00:50:48;;;;;;;0.40;0.40;;;;;;;13.06;76.16;96753.97;29395;208;63005;-57
2023/05/07 00:51:20;;;;;;;0.40;0.40;;;;;;;13.06;76.05;96753.97;29395;278;63017;-58
2023/05/07 00:51:51;;;;;;;0.50;0.50;;;;;;;13.07;76.20;96755.56;29395;236;63004;-58
2023/05/07 00:52:26;;;;;;;0.40;0.40;;;;;;;13.07;76.03;96750.12;29395;196;63009;-58
2023/05/07 00:54:06;;;;;;;0.40;0.40;;;;;;;13.06;75.86;96754.75;88174;217;64005;-59
2023/05/07 00:54:37;;;;;;;0.40;0.40;;;;;;;13.06;76.02;96749.31;29394;220;63998;-59
2023/05/07 00:55:14;;;;;;;0.40;0.40;;;;;;;13.06;75.89;96753.97;29395;278;63005;-60
2023/05/07 00:55:46;;;;;;;0.40;0.40;;;;;;;13.07;76.11;96758.28;29395;225;63009;-59
2023/05/07 00:56:18;;;;;;;0.40;0.40;;;;;;;13.06;75.91;96754.75;29395;223;63015;-59
2023/05/07 00:56:49;;;;;;;0.40;0.40;;;;;;;13.07;76.01;96755.56;29395;216;63009;-59
2023/05/07 00:57:22;;;;;;;0.40;0.40;;;;;;;13.06;76.02;96753.97;29395;206;63015;-55
2023/05/07 00:57:54;;;;;;;0.40;0.40;;;;;;;13.06;75.98;96760.22;29395;224;63009;-60
2023/05/07 00:58:25;;;;;;;0.40;0.40;;;;;;;13.04;76.16;96750.75;29395;253;63005;-58
2023/05/07 00:58:56;;;;;;;0.40;0.40;;;;;;;13.04;76.07;96750.75;29394;226;64013;-58
2023/05/07 00:59:28;;;;;;;0.40;0.40;;;;;;;13.03;76.48;96749.13;29395;271;63009;-57
2023/05/07 01:00:03;;;;;;;0.40;0.40;;;;;;;13.03;77.09;96751.84;29395;206;63009;-59
2023/05/07 01:00:37;;;;;;;0.45;0.45;;;;;;;13.01;76.96;96756.81;29395;197;63004;-57
2023/05/07 01:01:09;;;;;;;0.40;0.40;;;;;;;12.99;76.44;96746.22;29395;244;63004;-57
2023/05/07 01:01:42;;;;;;;0.50;0.50;;;;;;;12.98;76.89;96747.34;29395;258;63004;-57
2023/05/07 01:02:13;;;;;;;0.40;0.40;;;;;;;12.98;78.22;96758.22;29395;254;63009;-55
2023/05/07 01:02:44;;;;;;;0.40;0.40;;;;;;;12.95;78.84;96747.97;29395;236;63005;-58
2023/05/07 01:03:16;;;;;;;0.40;0.40;;;;;;;12.93;78.67;96749.38;29395;227;63009;-58
2023/05/07 01:03:47;;;;;;;0.50;0.50;;;;;;;12.90;77.98;96748.09;29395;248;63005;-58
2023/05/07 01:04:18;;;;;;;0.40;0.40;;;;;;;12.91;77.75;96746.16;29394;246;64013;-58
2023/05/07 01:04:49;;;;;;;0.40;0.40;;;;;;;12.90;77.97;96745.38;29395;219;63005;-58
2023/05/07 01:05:23;;;;;;;0.47;0.47;;;;;;;12.90;77.88;96756.25;29395;213;63009;-58
2023/05/07 01:05:57;;;;;;;0.40;0.40;;;;;;;12.90;77.75;96750.00;29395;204;63005;-58
2023/05/07 01:06:30;;;;;;;0.40;0.40;;;;;;;12.89;77.67;96751.12;29395;214;63019;-57
2023/05/07 01:07:02;;;;;;;0.40;0.40;;;;;;;12.90;77.79;96750.00;29394;204;64009;-58
2023/05/07 01:07:35;;;;;;;0.45;0.45;;;;;;;12.90;77.68;96750.00;29395;202;63004;-57
2023/05/07 01:08:07;;;;;;;0.50;0.50;;;;;;;12.90;77.85;96744.56;29395;212;63004;-57
2023/05/07 01:08:41;;;;;;;0.40;0.40;;;;;;;12.90;77.70;96752.72;29395;224;63008;-59
2023/05/07 01:09:13;;;;;;;0.47;0.47;;;;;;;12.90;77.56;96752.72;29394;196;64004;-58
2023/05/07 01:09:45;;;;;;;0.43;0.43;;;;;;;12.90;77.50;96750.00;29394;204;64009;-58
2023/05/07 01:10:17;;;;;;;0.40;0.40;;;;;;;12.89;77.86;96759.28;29394;204;64005;-59
2023/05/07 01:10:48;;;;;;;0.50;0.50;;;;;;;12.89;77.70;96753.84;29395;218;63009;-59
2023/05/07 01:11:21;;;;;;;0.50;0.50;;;;;;;12.89;77.97;96751.12;29395;273;63005;-59
2023/05/07 01:11:53;;;;;;;0.40;0.40;;;;;;;12.87;78.06;96754.16;29394;214;64013;-56
2023/05/07 01:12:25;;;;;;;0.50;0.50;;;;;;;12.87;77.78;96750.62;29395;216;63005;-59
2023/05/07 01:12:58;;;;;;;0.50;0.50;;;;;;;12.86;77.58;96754.47;29395;227;63009;-59
2023/05/07 01:13:30;;;;;;;0.50;0.50;;;;;;;12.87;77.68;96756.06;29395;245;63005;-59
2023/05/07 01:14:02;;;;;;;0.50;0.50;;;;;;;12.87;78.02;96756.06;29395;297;63009;-58
2023/05/07 01:14:34;;;;;;;0.50;0.50;;;;;;;12.86;77.73;96751.72;29395;243;63004;-59
2023/05/07 01:15:08;;;;;;;0.40;0.40;;;;;;;12.86;77.75;96757.19;29395;244;63009;-58
2023/05/07 01:15:40;;;;;;;0.50;0.50;;;;;;;12.86;78.00;96749.00;29395;236;63004;-58
2023/05/07 01:16:12;;;;;;;0.50;0.50;;;;;;;12.85;77.98;96758.28;29395;239;63008;-59
2023/05/07 01:16:44;;;;;;;0.40;0.40;;;;;;;12.84;78.05;96751.25;29395;229;63004;-58
2023/05/07 01:17:15;;;;;;;0.50;0.50;;;;;;;12.84;77.98;96751.25;29394;233;64014;-59
2023/05/07 01:17:47;;;;;;;0.47;0.47;;;;;;;12.83;77.79;96755.06;29394;199;64009;-59
2023/05/07 01:18:18;;;;;;;0.40;0.40;;;;;;;12.83;78.03;96755.06;29395;198;63009;-59
2023/05/07 01:18:50;;;;;;;0.40;0.40;;;;;;;12.82;78.32;96757.00;29394;218;64005;-59
2023/05/07 01:19:22;;;;;;;0.50;0.50;;;;;;;12.81;77.89;96749.16;29395;219;63023;-59
2023/05/07 01:19:53;;;;;;;0.50;0.50;;;;;;;12.81;77.84;96746.44;29394;228;64009;-58
2023/05/07 01:20:25;;;;;;;0.40;0.40;;;;;;;12.82;78.14;96748.06;29395;306;63009;-60
2023/05/07 01:20:59;;;;;;;0.50;0.50;;;;;;;12.81;78.20;96752.69;29395;209;63004;-58
2023/05/07 01:21:34;;;;;;;0.50;0.50;;;;;;;12.81;77.88;96747.25;29395;233;63009;-58
2023/05/07 01:22:14;;;;;;;0.50;0.50;;;;;;;12.82;77.80;96748.06;29394;268;64009;-58
2023/05/07 01:22:46;;;;;;;0.40;0.40;;;;;;;12.83;78.06;96750.44;29394;245;64013;-57
2023/05/07 01:23:18;;;;;;;0.50;0.50;;;;;;;12.84;77.58;96751.25;29395;302;63004;-59
2023/05/07 01:23:50;;;;;;;0.40;0.40;;;;;;;12.84;77.92;96745.78;29395;207;63008;-59
2023/05/07 01:24:22;;;;;;;0.40;0.40;;;;;;;12.84;77.60;96748.53;29395;226;63004;-59
2023/05/07 01:24:55;;;;;;;0.40;0.40;;;;;;;12.83;77.75;96746.91;29394;236;64014;-59
2023/05/07 01:25:28;;;;;;;0.50;0.50;;;;;;;12.85;77.68;96741.97;29395;214;63005;-59
2023/05/07 01:25:59;;;;;;;0.40;0.40;;;;;;;12.85;77.67;96747.41;29395;203;63009;-59
2023/05/07 01:26:31;;;;;;;0.40;0.40;;;;;;;12.86;77.57;96749.00;29395;209;63005;-59
2023/05/07 01:27:02;;;;;;;0.40;0.40;;;;;;;12.85;77.59;96739.22;29395;204;63009;-58
2023/05/07 01:27:36;;;;;;;0.40;0.40;;;;;;;12.86;77.58;96743.56;29395;270;63005;-59
2023/05/07 01:28:07;;;;;;;0.40;0.40;;;;;;;12.87;77.47;96745.19;29395;230;63009;-59
2023/05/07 01:28:38;;;;;;;0.50;0.50;;;;;;;12.87;77.42;96745.97;29395;198;63004;-59
2023/05/07 01:29:09;;;;;;;0.40;0.40;;;;;;;12.89;77.15;96748.41;29395;226;63009;-59
2023/05/07 01:29:41;;;;;;;0.40;0.40;;;;;;;12.88;77.11;96747.59;29394;269;64009;-59
2023/05/07 01:30:13;;;;;;;0.50;0.50;;;;;;;12.89;77.35;96748.41;29395;213;63009;-56
2023/05/07 01:30:49;;;;;;;0.40;0.40;;;;;;;12.89;77.20;96742.94;29395;236;63000;-59
2023/05/07 01:31:22;;;;;;;0.40;0.40;;;;;;;12.90;77.08;96748.09;29395;217;63009;-59
2023/05/07 01:31:56;;;;;;;0.50;0.50;;;;;;;12.90;77.24;96742.62;29395;204;63005;-59
2023/05/07 01:32:48;;;;;;;0.40;0.40;;;;;;;12.90;77.11;96744.56;29395;198;63009;-59
2023/05/07 01:33:21;;;;;;;;;;;;;;;12.90;77.02;96744.56;29996;982;6000;-56
2023/05/07 01:33:54;;;;;;;0.43;0.43;;;;;;;12.91;77.07;96746.97;29400;258;63005;-58
2023/05/07 01:34:32;;;;;;;0.50;0.50;;;;;;;12.92;77.02;96743.12;29395;222;63009;-58
2023/05/07 01:35:07;;;;;;;0.40;0.40;;;;;;;12.92;76.78;96748.56;29394;259;64009;-58
2023/05/07 01:35:44;;;;;;;0.45;0.45;;;;;;;12.92;76.86;96743.12;29395;240;63009;-57
2023/05/07 01:36:17;;;;;;;0.50;0.50;;;;;;;12.93;76.95;96743.94;29395;198;63004;-56
2023/05/07 01:36:49;;;;;;;0.40;0.40;;;;;;;12.93;76.79;96743.94;29395;253;63022;-59
2023/05/07 01:37:21;;;;;;;0.45;0.45;;;;;;;12.93;76.53;96741.22;29395;218;63014;-59
2023/05/07 01:37:54;;;;;;;0.50;0.50;;;;;;;12.94;76.93;96745.53;29394;279;64013;-57
2023/05/07 01:38:27;;;;;;;0.50;0.50;;;;;;;12.94;76.54;96740.91;29395;210;63004;-59
2023/05/07 01:39:02;;;;;;;0.40;0.40;;;;;;;12.94;76.71;96740.09;29395;221;63009;-59
2023/05/07 01:39:33;;;;;;;0.40;0.40;;;;;;;12.94;76.71;96734.66;29395;203;63019;-59
2023/05/07 01:40:07;;;;;;;0.40;0.40;;;;;;;12.93;76.50;96739.28;29395;221;63009;-58
2023/05/07 01:40:38;;;;;;;0.40;0.40;;;;;;;12.94;76.69;96740.09;29395;218;63015;-59
2023/05/07 01:41:13;;;;;;;0.40;0.40;;;;;;;12.93;77.89;96746.66;29395;199;63009;-59
2023/05/07 01:41:45;;;;;;;0.40;0.40;;;;;;;12.88;77.76;96741.34;29395;213;63005;-59
2023/05/07 01:42:17;;;;;;;0.40;0.40;;;;;;;12.86;77.41;96749.00;29395;213;63009;-58
2023/05/07 01:42:48;;;;;;;0.40;0.40;;;;;;;12.85;77.56;96736.50;29394;224;64009;-59
2023/05/07 01:43:20;;;;;;;0.50;0.50;;;;;;;12.83;78.01;96750.44;29395;244;63009;-59
2023/05/07 01:43:53;;;;;;;0.45;0.45;;;;;;;12.83;77.87;96744.19;29394;203;64009;-59
2023/05/07 01:44:29;;;;;;;0.40;0.40;;;;;;;12.81;77.25;96747.25;29394;202;64009;-59
2023/05/07 01:45:00;;;;;;;0.40;0.40;;;;;;;12.81;77.69;96749.16;29395;202;63004;-59
2023/05/07 01:45:32;;;;;;;0.50;0.50;;;;;;;12.82;77.80;96742.59;29395;226;63008;-59
2023/05/07 01:46:04;;;;;;;0.40;0.40;;;;;;;12.83;77.53;96746.91;29395;204;63004;-59
2023/05/07 01:46:36;;;;;;;0.40;0.40;;;;;;;12.81;78.23;96749.16;29395;225;63009;-59
2023/05/07 01:47:11;;;;;;;0.45;0.45;;;;;;;12.79;78.14;96744.03;29395;276;63005;-57
2023/05/07 01:47:43;;;;;;;0.40;0.40;;;;;;;12.78;77.76;96736.16;29395;197;63009;-58
2023/05/07 01:48:15;;;;;;;0.43;0.43;;;;;;;12.77;77.98;96742.72;29394;206;64009;-56
2023/05/07 01:48:48;;;;;;;0.40;0.40;;;;;;;12.77;78.08;96734.56;29395;222;63009;-58
2023/05/07 01:49:20;;;;;;;0.40;0.40;;;;;;;12.77;77.74;96740.00;29395;209;63005;-59
2023/05/07 01:49:52;;;;;;;0.43;0.43;;;;;;;12.75;78.36;96738.41;29395;223;63009;-58
2023/05/07 01:50:25;;;;;;;0.40;0.40;;;;;;;12.74;79.04;96741.44;29395;205;63005;-58
2023/05/07 01:50:56;;;;;;;0.40;0.40;;;;;;;12.71;78.59;96742.03;29395;206;63009;-58
2023/05/07 01:51:27;;;;;;;0.43;0.43;;;;;;;12.71;78.12;96739.31;29395;219;63004;-59
2023/05/07 01:51:59;;;;;;;0.40;0.40;;;;;;;12.70;78.28;96735.00;29394;210;64009;-58
2023/05/07 01:52:31;;;;;;;0.50;0.50;;;;;;;12.69;78.09;96739.63;29395;245;63004;-58
2023/05/07 01:53:03;;;;;;;0.40;0.40;;;;;;;12.69;78.08;96734.19;29394;260;64013;-58
2023/05/07 01:53:38;;;;;;;0.40;0.40;;;;;;;12.71;78.45;96739.31;29395;274;63004;-59
2023/05/07 01:54:15;;;;;;;0.40;0.40;;;;;;;12.65;79.52;96737.84;29395;281;63020;-58
2023/05/07 01:54:46;;;;;;;0.40;0.40;;;;;;;12.56;80.39;96734.25;29395;199;63005;-56
2023/05/07 01:55:19;;;;;;;0.77;0.77;;;;;;;12.48;80.50;96738.50;29395;204;63009;-57
2023/05/07 01:55:50;;;;;;;0.40;0.40;;;;;;;12.48;80.09;96737.69;29395;321;63005;-59
2023/05/07 01:56:22;;;;;;;0.40;0.40;;;;;;;12.49;80.01;96733.84;29395;203;63009;-56
2023/05/07 01:56:53;;;;;;;0.45;0.45;;;;;;;12.50;79.52;96736.28;29395;206;63005;-58
2023/05/07 01:57:25;;;;;;;0.40;0.40;;;;;;;12.52;79.60;96734.03;29395;216;63009;-59
2023/05/07 01:57:56;;;;;;;0.47;0.47;;;;;;;12.54;79.21;96736.47;29395;203;63005;-58
2023/05/07 01:58:27;;;;;;;0.40;0.40;;;;;;;12.55;79.06;96736.16;29394;232;64013;-58
2023/05/07 01:58:58;;;;;;;0.40;0.40;;;;;;;12.56;79.03;96737.75;29394;204;64009;-59
2023/05/07 01:59:30;;;;;;;0.50;0.50;;;;;;;12.57;78.88;96739.37;29395;210;63020;-59
2023/05/07 02:00:06;;;;;;;0.43;0.43;;;;;;;12.58;78.37;96738.25;29395;239;63004;-58
2023/05/07 02:00:37;;;;;;;0.40;0.40;;;;;;;12.59;78.46;96739.87;29395;219;63019;-59
2023/05/07 02:01:08;;;;;;;0.40;0.40;;;;;;;12.61;78.06;96737.66;29395;264;63004;-59
2023/05/07 02:01:39;;;;;;;0.40;0.40;;;;;;;12.62;78.32;96746.63;29395;196;63009;-56
2023/05/07 02:02:11;;;;;;;0.50;0.50;;;;;;;12.62;77.85;96744.69;29395;266;63005;-59
2023/05/07 02:02:42;;;;;;;0.47;0.47;;;;;;;12.62;77.84;96739.25;29395;197;63009;-56
2023/05/07 02:03:16;;;;;;;0.50;0.50;;;;;;;12.64;77.81;96744.38;29395;203;63005;-58
2023/05/07 02:03:49;;;;;;;0.40;0.40;;;;;;;12.64;78.02;96738.94;29394;218;64013;-59
2023/05/07 02:04:20;;;;;;;0.47;0.47;;;;;;;12.65;77.53;96738.63;29395;244;63005;-56
2023/05/07 02:04:52;;;;;;;0.40;0.40;;;;;;;12.65;77.91;96735.91;29395;237;63009;-57
2023/05/07 02:05:23;;;;;;;0.40;0.40;;;;;;;12.65;77.47;96741.38;29395;204;63005;-60
2023/05/07 02:05:54;;;;;;;0.40;0.40;;;;;;;12.65;77.49;96738.63;29394;204;64013;-58
2023/05/07 02:06:26;;;;;;;0.40;0.40;;;;;;;12.66;77.57;96745.69;29395;212;63004;-60
2023/05/07 02:06:57;;;;;;;0.47;0.47;;;;;;;12.66;77.58;96742.97;29395;218;63009;-56
2023/05/07 02:07:28;;;;;;;0.40;0.40;;;;;;;12.67;77.44;96744.56;29395;245;63004;-59
2023/05/07 02:08:00;;;;;;;0.40;0.40;;;;;;;12.67;77.42;96744.56;29395;205;63009;-59
2023/05/07 02:08:31;;;;;;;0.40;0.40;;;;;;;12.67;77.26;96744.56;29395;212;63004;-58
2023/05/07 02:10:10;;;;;;;0.47;0.47;;;;;;;12.68;77.68;96743.47;88174;218;64005;-59
2023/05/07 02:10:42;;;;;;;0.40;0.40;;;;;;;12.68;77.62;96742.66;29394;213;64009;-59
2023/05/07 02:11:13;;;;;;;0.40;0.40;;;;;;;12.68;77.45;96746.19;29394;222;64009;-57
2023/05/07 02:11:44;;;;;;;0.47;0.47;;;;;;;12.68;77.45;96738.03;29395;377;63009;-57
2023/05/07 02:12:16;;;;;;;0.50;0.50;;;;;;;12.69;77.35;96745.06;29394;244;64009;-55
2023/05/07 02:12:47;;;;;;;0.40;0.40;;;;;;;12.69;77.40;96741.56;29395;238;63009;-58
2023/05/07 02:13:19;;;;;;;0.40;0.40;;;;;;;12.70;77.68;96743.16;29395;211;63005;-59
2023/05/07 02:13:52;;;;;;;0.40;0.40;;;;;;;12.70;77.41;96746.69;29395;238;63009;-58
2023/05/07 02:14:25;;;;;;;0.40;0.40;;;;;;;12.71;77.52;96742.03;29395;244;63005;-59
2023/05/07 02:14:57;;;;;;;0.40;0.40;;;;;;;12.70;77.52;96738.53;29395;206;63009;-59
2023/05/07 02:15:28;;;;;;;0.40;0.40;;;;;;;12.72;77.58;96744.47;29395;218;63004;-58
2023/05/07 02:15:59;;;;;;;0.40;0.40;;;;;;;12.73;77.23;96746.06;29395;219;63009;-58
2023/05/07 02:16:30;;;;;;;0.45;0.45;;;;;;;12.74;77.35;96747.69;29395;218;63004;-55
2023/05/07 02:17:02;;;;;;;0.40;0.40;;;;;;;12.74;77.33;96747.69;29394;266;64007;-58
2023/05/07 02:17:36;;;;;;;0.40;0.40;;;;;;;12.74;77.29;96746.87;29395;219;63004;-59
2023/05/07 02:18:09;;;;;;;0.47;0.47;;;;;;;12.74;77.38;96742.22;29395;219;63009;-59
2023/05/07 02:18:40;;;;;;;0.50;0.50;;;;;;;12.75;77.59;96745.75;29395;197;63005;-59
2023/05/07 02:19:12;;;;;;;0.50;0.50;;;;;;;12.75;77.60;96746.56;29394;236;64014;-58
2023/05/07 02:19:43;;;;;;;0.40;0.40;;;;;;;12.74;77.38;96747.69;29394;223;64009;-56
2023/05/07 02:20:15;;;;;;;0.40;0.40;;;;;;;12.75;77.62;96743.84;29395;277;63009;-58
2023/05/07 02:20:46;;;;;;;0.40;0.40;;;;;;;12.75;77.75;96746.56;29395;204;63005;-58
2023/05/07 02:21:17;;;;;;;0.43;0.43;;;;;;;12.76;77.56;96744.66;29395;236;63009;-59
2023/05/07 02:21:50;;;;;;;0.40;0.40;;;;;;;12.77;77.94;96742.72;29395;236;63015;-58
2023/05/07 02:22:21;;;;;;;0.40;0.40;;;;;;;12.78;77.56;96747.06;29395;221;63009;-58
2023/05/07 02:22:53;;;;;;;0.40;0.40;;;;;;;12.77;77.62;96740.00;29395;276;63004;-58
2023/05/07 02:23:24;;;;;;;0.40;0.40;;;;;;;12.77;77.73;96748.19;29395;211;63009;-58
2023/05/07 02:23:57;;;;;;;0.40;0.40;;;;;;;12.78;77.68;96741.63;29394;214;64009;-58
2023/05/07 02:25:35;;;;;;;0.42;0.42;;;;;;;12.78;77.96;96749.78;88178;223;64004;-57
2023/05/07 02:26:06;;;;;;;0.40;0.40;;;;;;;12.80;78.27;96753.00;29394;203;64009;-58
2023/05/07 02:26:39;;;;;;;0.40;0.40;;;;;;;12.80;77.96;96750.28;29395;202;63005;-58
2023/05/07 02:27:12;;;;;;;0.40;0.40;;;;;;;12.80;78.08;96753.00;29395;233;63024;-58
2023/05/07 02:27:47;;;;;;;0.40;0.40;;;;;;;12.79;78.16;96744.03;29395;241;63005;-57
2023/05/07 02:28:18;;;;;;;0.40;0.40;;;;;;;12.80;78.13;96750.28;29395;213;63009;-57
2023/05/07 02:28:49;;;;;;;0.40;0.40;;;;;;;12.80;78.12;96750.28;29395;245;63005;-57
2023/05/07 02:29:20;;;;;;;0.40;0.40;;;;;;;12.80;77.97;96753.00;29394;212;64013;-57
2023/05/07 02:29:51;;;;;;;0.40;0.40;;;;;;;12.80;77.89;96751.09;29394;203;64009;-57
2023/05/07 02:30:23;;;;;;;0.50;0.50;;;;;;;12.81;77.95;96751.88;29395;240;63009;-59
2023/05/07 02:30:55;;;;;;;0.50;0.50;;;;;;;12.82;77.95;96756.22;29395;208;63004;-59
2023/05/07 02:31:26;;;;;;;0.40;0.40;;;;;;;12.82;78.16;96753.50;29395;214;63009;-60
2023/05/07 02:31:57;;;;;;;0.40;0.40;;;;;;;12.82;78.18;96753.50;29395;199;63004;-59
2023/05/07 02:32:28;;;;;;;0.40;0.40;;;;;;;12.82;77.79;96745.31;29395;225;63007;-59
2023/05/07 02:33:00;;;;;;;0.40;0.40;;;;;;;12.83;78.00;96750.44;29395;273;63005;-59
2023/05/07 02:33:31;;;;;;;0.40;0.40;;;;;;;12.83;77.83;96744.19;29395;262;63009;-59
2023/05/07 02:34:03;;;;;;;0.40;0.40;;;;;;;12.83;78.01;96746.91;29395;287;63005;-59
2023/05/07 02:34:35;;;;;;;0.50;0.50;;;;;;;12.83;77.97;96745.00;29394;212;64013;-59
2023/05/07 02:35:07;;;;;;;0.50;0.50;;;;;;;12.84;77.77;96745.78;29394;249;64009;-59
2023/05/07 02:35:38;;;;;;;0.40;0.40;;;;;;;12.84;77.90;96745.78;29395;258;63005;-59
2023/05/07 02:36:11;;;;;;;0.50;0.50;;;;;;;12.84;78.07;96746.59;29395;264;63005;-59
2023/05/07 02:36:42;;;;;;;0.40;0.40;;;;;;;12.84;77.66;96743.06;29395;199;63009;-59
2023/05/07 02:37:13;;;;;;;0.40;0.40;;;;;;;12.83;78.07;96745.00;29395;203;63004;-59
2023/05/07 02:37:45;;;;;;;0.40;0.40;;;;;;;12.83;77.84;96741.47;29395;281;63004;-60